sensor_id;sensor_type;location;lat;lon;timestamp;P1;durP1;ratioP1;P2;durP2;ratioP2
18296;SDS011;18066;52.106;5.534;2022-08-03T00:02:02;2.58;;;1.35;;
18296;SDS011;18066;52.106;5.534;2022-08-03T00:04:29;2.95;;;1.55;;
18296;SDS011;18066;52.106;5.534;2022-08-03T00:06:56;4.72;;;1.58;;
18296;SDS011;18066;52.106;5.534;2022-08-03T00:09:23;8.23;;;1.70;;
18296;SDS011;18066;52.106;5.534;2022-08-03T00:11:49;5.78;;;1.65;;
18296;SDS011;18066;52.106;5.534;2022-08-03T00:14:16;8.18;;;1.70;;
18296;SDS011;18066;52.106;5.534;2022-08-03T00:16:44;4.72;;;1.73;;
18296;SDS011;18066;52.106;5.534;2022-08-03T00:19:11;5.53;;;1.95;;
18296;SDS011;18066;52.106;5.534;2022-08-03T00:21:37;8.93;;;1.65;;
18296;SDS011;18066;52.106;5.534;2022-08-03T00:24:04;5.13;;;2.00;;
18296;SDS011;18066;52.106;5.534;2022-08-03T00:26:31;3.90;;;1.50;;
18296;SDS011;18066;52.106;5.534;2022-08-03T00:28:58;6.63;;;1.48;;
18296;SDS011;18066;52.106;5.534;2022-08-03T00:31:25;7.32;;;1.92;;
18296;SDS011;18066;52.106;5.534;2022-08-03T00:33:53;4.10;;;1.42;;
18296;SDS011;18066;52.106;5.534;2022-08-03T00:36:19;7.18;;;1.52;;
18296;SDS011;18066;52.106;5.534;2022-08-03T00:38:46;5.97;;;1.70;;
18296;SDS011;18066;52.106;5.534;2022-08-03T00:41:13;2.28;;;1.63;;
18296;SDS011;18066;52.106;5.534;2022-08-03T00:43:39;5.20;;;2.10;;
18296;SDS011;18066;52.106;5.534;2022-08-03T00:46:06;5.50;;;1.50;;
18296;SDS011;18066;52.106;5.534;2022-08-03T00:48:33;2.90;;;1.33;;
18296;SDS011;18066;52.106;5.534;2022-08-03T00:51:01;5.25;;;1.77;;
18296;SDS011;18066;52.106;5.534;2022-08-03T00:53:28;4.50;;;2.33;;
18296;SDS011;18066;52.106;5.534;2022-08-03T00:55:55;5.35;;;1.73;;
18296;SDS011;18066;52.106;5.534;2022-08-03T00:58:22;4.28;;;1.63;;
18296;SDS011;18066;52.106;5.534;2022-08-03T01:00:49;4.63;;;1.83;;
18296;SDS011;18066;52.106;5.534;2022-08-03T01:03:16;9.52;;;2.08;;
18296;SDS011;18066;52.106;5.534;2022-08-03T01:05:43;5.07;;;1.67;;
18296;SDS011;18066;52.106;5.534;2022-08-03T01:08:21;4.32;;;1.55;;
18296;SDS011;18066;52.106;5.534;2022-08-03T01:11:00;2.80;;;1.50;;
18296;SDS011;18066;52.106;5.534;2022-08-03T01:13:33;6.68;;;1.83;;
18296;SDS011;18066;52.106;5.534;2022-08-03T01:16:07;6.30;;;1.92;;
18296;SDS011;18066;52.106;5.534;2022-08-03T01:18:37;6.25;;;1.50;;
18296;SDS011;18066;52.106;5.534;2022-08-03T01:21:09;6.85;;;1.50;;
18296;SDS011;18066;52.106;5.534;2022-08-03T01:23:50;2.65;;;1.48;;
18296;SDS011;18066;52.106;5.534;2022-08-03T01:26:35;5.15;;;2.05;;
18296;SDS011;18066;52.106;5.534;2022-08-03T01:29:18;5.85;;;2.45;;
18296;SDS011;18066;52.106;5.534;2022-08-03T01:32:09;7.45;;;2.35;;
18296;SDS011;18066;52.106;5.534;2022-08-03T01:34:40;5.45;;;1.90;;
18296;SDS011;18066;52.106;5.534;2022-08-03T01:37:09;3.22;;;2.20;;
18296;SDS011;18066;52.106;5.534;2022-08-03T01:39:39;8.57;;;2.17;;
18296;SDS011;18066;52.106;5.534;2022-08-03T01:42:07;5.18;;;2.22;;
18296;SDS011;18066;52.106;5.534;2022-08-03T01:44:39;7.05;;;1.80;;
18296;SDS011;18066;52.106;5.534;2022-08-03T01:47:08;7.72;;;2.22;;
18296;SDS011;18066;52.106;5.534;2022-08-03T01:49:38;6.72;;;2.30;;
18296;SDS011;18066;52.106;5.534;2022-08-03T01:52:09;5.07;;;2.15;;
18296;SDS011;18066;52.106;5.534;2022-08-03T01:54:39;4.13;;;1.85;;
18296;SDS011;18066;52.106;5.534;2022-08-03T01:57:08;4.25;;;2.10;;
18296;SDS011;18066;52.106;5.534;2022-08-03T01:59:35;7.38;;;2.10;;
18296;SDS011;18066;52.106;5.534;2022-08-03T02:02:03;7.20;;;2.53;;
18296;SDS011;18066;52.106;5.534;2022-08-03T02:04:33;3.92;;;1.95;;
18296;SDS011;18066;52.106;5.534;2022-08-03T02:07:01;7.80;;;1.83;;
18296;SDS011;18066;52.106;5.534;2022-08-03T02:09:28;5.28;;;2.40;;
18296;SDS011;18066;52.106;5.534;2022-08-03T02:11:56;3.28;;;2.25;;
18296;SDS011;18066;52.106;5.534;2022-08-03T02:14:24;6.05;;;2.20;;
18296;SDS011;18066;52.106;5.534;2022-08-03T02:16:52;8.90;;;2.38;;
18296;SDS011;18066;52.106;5.534;2022-08-03T02:19:20;6.30;;;2.45;;
18296;SDS011;18066;52.106;5.534;2022-08-03T02:21:50;9.85;;;2.55;;
18296;SDS011;18066;52.106;5.534;2022-08-03T02:24:19;8.27;;;2.75;;
18296;SDS011;18066;52.106;5.534;2022-08-03T02:26:45;9.10;;;2.80;;
18296;SDS011;18066;52.106;5.534;2022-08-03T02:29:15;6.32;;;2.33;;
18296;SDS011;18066;52.106;5.534;2022-08-03T02:31:45;9.98;;;2.67;;
18296;SDS011;18066;52.106;5.534;2022-08-03T02:34:14;8.10;;;2.60;;
18296;SDS011;18066;52.106;5.534;2022-08-03T02:36:45;7.97;;;2.72;;
18296;SDS011;18066;52.106;5.534;2022-08-03T02:39:18;8.60;;;2.40;;
18296;SDS011;18066;52.106;5.534;2022-08-03T02:41:47;8.20;;;3.00;;
18296;SDS011;18066;52.106;5.534;2022-08-03T02:44:17;10.02;;;3.05;;
18296;SDS011;18066;52.106;5.534;2022-08-03T02:46:52;7.80;;;2.63;;
18296;SDS011;18066;52.106;5.534;2022-08-03T02:49:22;8.60;;;2.65;;
18296;SDS011;18066;52.106;5.534;2022-08-03T02:51:50;8.38;;;2.60;;
18296;SDS011;18066;52.106;5.534;2022-08-03T02:54:19;7.40;;;2.90;;
18296;SDS011;18066;52.106;5.534;2022-08-03T02:56:48;13.57;;;2.95;;
18296;SDS011;18066;52.106;5.534;2022-08-03T02:59:17;6.68;;;2.47;;
18296;SDS011;18066;52.106;5.534;2022-08-03T03:01:45;6.93;;;2.92;;
18296;SDS011;18066;52.106;5.534;2022-08-03T03:04:13;9.73;;;3.15;;
18296;SDS011;18066;52.106;5.534;2022-08-03T03:06:41;8.32;;;3.47;;
18296;SDS011;18066;52.106;5.534;2022-08-03T03:09:09;6.63;;;3.55;;
18296;SDS011;18066;52.106;5.534;2022-08-03T03:11:38;7.45;;;3.00;;
18296;SDS011;18066;52.106;5.534;2022-08-03T03:14:05;9.30;;;3.13;;
18296;SDS011;18066;52.106;5.534;2022-08-03T03:16:34;9.90;;;3.13;;
18296;SDS011;18066;52.106;5.534;2022-08-03T03:19:01;8.02;;;3.10;;
18296;SDS011;18066;52.106;5.534;2022-08-03T03:21:29;6.55;;;2.88;;
18296;SDS011;18066;52.106;5.534;2022-08-03T03:23:57;16.08;;;3.78;;
18296;SDS011;18066;52.106;5.534;2022-08-03T03:26:25;14.00;;;4.38;;
18296;SDS011;18066;52.106;5.534;2022-08-03T03:28:53;8.73;;;3.03;;
18296;SDS011;18066;52.106;5.534;2022-08-03T03:31:21;9.73;;;3.83;;
18296;SDS011;18066;52.106;5.534;2022-08-03T03:33:48;5.78;;;3.17;;
18296;SDS011;18066;52.106;5.534;2022-08-03T03:36:15;6.45;;;3.03;;
18296;SDS011;18066;52.106;5.534;2022-08-03T03:38:42;8.30;;;3.88;;
18296;SDS011;18066;52.106;5.534;2022-08-03T03:41:09;10.07;;;3.22;;
18296;SDS011;18066;52.106;5.534;2022-08-03T03:43:36;8.88;;;3.30;;
18296;SDS011;18066;52.106;5.534;2022-08-03T03:46:04;10.45;;;3.47;;
18296;SDS011;18066;52.106;5.534;2022-08-03T03:48:31;11.80;;;3.58;;
18296;SDS011;18066;52.106;5.534;2022-08-03T03:50:58;9.95;;;3.53;;
18296;SDS011;18066;52.106;5.534;2022-08-03T03:53:26;14.02;;;3.08;;
18296;SDS011;18066;52.106;5.534;2022-08-03T03:55:53;7.45;;;2.85;;
18296;SDS011;18066;52.106;5.534;2022-08-03T03:58:19;9.15;;;2.70;;
18296;SDS011;18066;52.106;5.534;2022-08-03T04:00:46;7.93;;;3.30;;
18296;SDS011;18066;52.106;5.534;2022-08-03T04:03:15;11.32;;;2.85;;
18296;SDS011;18066;52.106;5.534;2022-08-03T04:05:41;11.00;;;2.80;;
18296;SDS011;18066;52.106;5.534;2022-08-03T04:08:26;12.25;;;2.53;;
18296;SDS011;18066;52.106;5.534;2022-08-03T04:11:12;14.27;;;3.13;;
18296;SDS011;18066;52.106;5.534;2022-08-03T04:13:43;15.88;;;3.25;;
18296;SDS011;18066;52.106;5.534;2022-08-03T04:16:15;7.70;;;3.33;;
18296;SDS011;18066;52.106;5.534;2022-08-03T04:18:48;12.25;;;2.60;;
18296;SDS011;18066;52.106;5.534;2022-08-03T04:21:18;13.88;;;3.72;;
18296;SDS011;18066;52.106;5.534;2022-08-03T04:23:48;11.38;;;3.13;;
18296;SDS011;18066;52.106;5.534;2022-08-03T04:26:19;9.02;;;3.05;;
18296;SDS011;18066;52.106;5.534;2022-08-03T04:28:47;11.38;;;3.53;;
18296;SDS011;18066;52.106;5.534;2022-08-03T04:31:15;13.63;;;4.20;;
18296;SDS011;18066;52.106;5.534;2022-08-03T04:33:46;12.00;;;3.70;;
18296;SDS011;18066;52.106;5.534;2022-08-03T04:36:16;10.80;;;3.83;;
18296;SDS011;18066;52.106;5.534;2022-08-03T04:38:48;11.48;;;4.00;;
18296;SDS011;18066;52.106;5.534;2022-08-03T04:41:20;10.75;;;3.35;;
18296;SDS011;18066;52.106;5.534;2022-08-03T04:43:49;16.20;;;4.10;;
18296;SDS011;18066;52.106;5.534;2022-08-03T04:46:19;14.45;;;3.53;;
18296;SDS011;18066;52.106;5.534;2022-08-03T04:48:49;11.18;;;3.95;;
18296;SDS011;18066;52.106;5.534;2022-08-03T04:51:16;8.30;;;3.67;;
18296;SDS011;18066;52.106;5.534;2022-08-03T04:53:43;15.93;;;3.97;;
18296;SDS011;18066;52.106;5.534;2022-08-03T04:56:10;10.38;;;3.90;;
18296;SDS011;18066;52.106;5.534;2022-08-03T04:58:37;10.18;;;3.97;;
18296;SDS011;18066;52.106;5.534;2022-08-03T05:01:04;12.43;;;3.67;;
18296;SDS011;18066;52.106;5.534;2022-08-03T05:03:31;13.45;;;3.65;;
18296;SDS011;18066;52.106;5.534;2022-08-03T05:05:59;6.93;;;3.10;;
18296;SDS011;18066;52.106;5.534;2022-08-03T05:08:26;12.35;;;3.80;;
18296;SDS011;18066;52.106;5.534;2022-08-03T05:10:53;6.03;;;3.35;;
18296;SDS011;18066;52.106;5.534;2022-08-03T05:13:19;9.00;;;3.30;;
18296;SDS011;18066;52.106;5.534;2022-08-03T05:15:46;11.25;;;3.63;;
18296;SDS011;18066;52.106;5.534;2022-08-03T05:18:13;10.45;;;3.35;;
18296;SDS011;18066;52.106;5.534;2022-08-03T05:20:40;11.68;;;3.17;;
18296;SDS011;18066;52.106;5.534;2022-08-03T05:23:08;9.15;;;3.83;;
18296;SDS011;18066;52.106;5.534;2022-08-03T05:25:35;12.73;;;3.78;;
18296;SDS011;18066;52.106;5.534;2022-08-03T05:28:02;13.63;;;4.13;;
18296;SDS011;18066;52.106;5.534;2022-08-03T05:30:29;11.88;;;3.50;;
18296;SDS011;18066;52.106;5.534;2022-08-03T05:32:56;11.75;;;3.65;;
18296;SDS011;18066;52.106;5.534;2022-08-03T05:35:23;13.90;;;3.60;;
18296;SDS011;18066;52.106;5.534;2022-08-03T05:37:51;16.05;;;4.50;;
18296;SDS011;18066;52.106;5.534;2022-08-03T05:40:19;12.48;;;3.45;;
18296;SDS011;18066;52.106;5.534;2022-08-03T05:42:46;15.02;;;4.15;;
18296;SDS011;18066;52.106;5.534;2022-08-03T05:45:13;11.18;;;3.70;;
18296;SDS011;18066;52.106;5.534;2022-08-03T05:47:41;13.32;;;3.95;;
18296;SDS011;18066;52.106;5.534;2022-08-03T05:50:08;10.50;;;3.80;;
18296;SDS011;18066;52.106;5.534;2022-08-03T05:52:36;5.53;;;2.80;;
18296;SDS011;18066;52.106;5.534;2022-08-03T05:55:03;8.07;;;3.92;;
18296;SDS011;18066;52.106;5.534;2022-08-03T05:57:32;11.52;;;3.90;;
18296;SDS011;18066;52.106;5.534;2022-08-03T05:59:59;15.57;;;4.82;;
18296;SDS011;18066;52.106;5.534;2022-08-03T06:02:27;12.18;;;4.20;;
18296;SDS011;18066;52.106;5.534;2022-08-03T06:04:55;11.73;;;4.03;;
18296;SDS011;18066;52.106;5.534;2022-08-03T06:07:21;11.25;;;4.45;;
18296;SDS011;18066;52.106;5.534;2022-08-03T06:09:48;12.00;;;4.50;;
18296;SDS011;18066;52.106;5.534;2022-08-03T06:12:15;12.45;;;4.32;;
18296;SDS011;18066;52.106;5.534;2022-08-03T06:14:43;13.80;;;4.57;;
18296;SDS011;18066;52.106;5.534;2022-08-03T06:17:10;9.60;;;3.85;;
18296;SDS011;18066;52.106;5.534;2022-08-03T06:19:36;14.13;;;3.85;;
18296;SDS011;18066;52.106;5.534;2022-08-03T06:22:03;12.63;;;4.07;;
18296;SDS011;18066;52.106;5.534;2022-08-03T06:24:30;15.43;;;3.50;;
18296;SDS011;18066;52.106;5.534;2022-08-03T06:26:57;8.25;;;3.33;;
18296;SDS011;18066;52.106;5.534;2022-08-03T06:29:23;10.10;;;3.78;;
18296;SDS011;18066;52.106;5.534;2022-08-03T06:31:51;14.65;;;4.45;;
18296;SDS011;18066;52.106;5.534;2022-08-03T06:34:18;12.88;;;3.75;;
18296;SDS011;18066;52.106;5.534;2022-08-03T06:36:45;10.27;;;3.97;;
18296;SDS011;18066;52.106;5.534;2022-08-03T06:39:12;10.15;;;4.22;;
18296;SDS011;18066;52.106;5.534;2022-08-03T06:41:39;9.05;;;3.25;;
18296;SDS011;18066;52.106;5.534;2022-08-03T06:44:06;10.50;;;4.30;;
18296;SDS011;18066;52.106;5.534;2022-08-03T06:46:32;15.23;;;3.92;;
18296;SDS011;18066;52.106;5.534;2022-08-03T06:49:00;13.38;;;3.78;;
18296;SDS011;18066;52.106;5.534;2022-08-03T06:51:27;11.45;;;3.53;;
18296;SDS011;18066;52.106;5.534;2022-08-03T06:53:55;13.40;;;4.55;;
18296;SDS011;18066;52.106;5.534;2022-08-03T06:56:21;11.93;;;4.40;;
18296;SDS011;18066;52.106;5.534;2022-08-03T06:58:48;12.63;;;4.80;;
18296;SDS011;18066;52.106;5.534;2022-08-03T07:01:15;15.50;;;4.07;;
18296;SDS011;18066;52.106;5.534;2022-08-03T07:03:42;12.48;;;4.32;;
18296;SDS011;18066;52.106;5.534;2022-08-03T07:06:10;11.80;;;4.00;;
18296;SDS011;18066;52.106;5.534;2022-08-03T07:08:36;5.95;;;3.50;;
18296;SDS011;18066;52.106;5.534;2022-08-03T07:11:03;10.98;;;3.70;;
18296;SDS011;18066;52.106;5.534;2022-08-03T07:13:30;19.77;;;4.03;;
18296;SDS011;18066;52.106;5.534;2022-08-03T07:15:57;9.65;;;3.40;;
18296;SDS011;18066;52.106;5.534;2022-08-03T07:18:23;12.50;;;3.97;;
18296;SDS011;18066;52.106;5.534;2022-08-03T07:20:50;15.80;;;4.53;;
18296;SDS011;18066;52.106;5.534;2022-08-03T07:23:18;15.57;;;3.40;;
18296;SDS011;18066;52.106;5.534;2022-08-03T07:25:45;14.00;;;4.82;;
18296;SDS011;18066;52.106;5.534;2022-08-03T07:28:12;20.45;;;4.07;;
18296;SDS011;18066;52.106;5.534;2022-08-03T07:30:38;10.65;;;3.05;;
18296;SDS011;18066;52.106;5.534;2022-08-03T07:33:05;14.18;;;3.28;;
18296;SDS011;18066;52.106;5.534;2022-08-03T07:35:32;13.63;;;3.55;;
18296;SDS011;18066;52.106;5.534;2022-08-03T07:37:59;13.50;;;3.67;;
18296;SDS011;18066;52.106;5.534;2022-08-03T07:40:27;18.83;;;3.58;;
18296;SDS011;18066;52.106;5.534;2022-08-03T07:42:54;10.95;;;3.78;;
18296;SDS011;18066;52.106;5.534;2022-08-03T07:45:22;10.15;;;3.60;;
18296;SDS011;18066;52.106;5.534;2022-08-03T07:47:50;11.68;;;2.97;;
18296;SDS011;18066;52.106;5.534;2022-08-03T07:50:17;13.45;;;3.10;;
18296;SDS011;18066;52.106;5.534;2022-08-03T07:52:43;13.98;;;3.60;;
18296;SDS011;18066;52.106;5.534;2022-08-03T07:55:13;11.95;;;3.22;;
18296;SDS011;18066;52.106;5.534;2022-08-03T07:57:42;8.43;;;3.47;;
18296;SDS011;18066;52.106;5.534;2022-08-03T08:00:12;7.53;;;2.80;;
18296;SDS011;18066;52.106;5.534;2022-08-03T08:02:40;9.15;;;3.60;;
18296;SDS011;18066;52.106;5.534;2022-08-03T08:05:06;14.02;;;3.08;;
18296;SDS011;18066;52.106;5.534;2022-08-03T08:07:34;10.10;;;3.13;;
18296;SDS011;18066;52.106;5.534;2022-08-03T08:10:02;10.07;;;3.67;;
18296;SDS011;18066;52.106;5.534;2022-08-03T08:12:29;12.05;;;3.00;;
18296;SDS011;18066;52.106;5.534;2022-08-03T08:14:57;10.23;;;2.70;;
18296;SDS011;18066;52.106;5.534;2022-08-03T08:17:24;12.45;;;2.75;;
18296;SDS011;18066;52.106;5.534;2022-08-03T08:19:51;10.73;;;3.22;;
18296;SDS011;18066;52.106;5.534;2022-08-03T08:22:17;11.02;;;3.10;;
18296;SDS011;18066;52.106;5.534;2022-08-03T08:24:44;13.88;;;3.20;;
18296;SDS011;18066;52.106;5.534;2022-08-03T08:27:13;24.25;;;2.95;;
18296;SDS011;18066;52.106;5.534;2022-08-03T08:29:39;16.00;;;3.45;;
18296;SDS011;18066;52.106;5.534;2022-08-03T08:32:07;18.02;;;2.85;;
18296;SDS011;18066;52.106;5.534;2022-08-03T08:34:35;11.73;;;3.10;;
18296;SDS011;18066;52.106;5.534;2022-08-03T08:37:02;9.98;;;2.72;;
18296;SDS011;18066;52.106;5.534;2022-08-03T08:39:28;13.05;;;3.03;;
18296;SDS011;18066;52.106;5.534;2022-08-03T08:41:55;12.25;;;2.92;;
18296;SDS011;18066;52.106;5.534;2022-08-03T08:44:22;9.57;;;3.22;;
18296;SDS011;18066;52.106;5.534;2022-08-03T08:46:49;10.82;;;2.80;;
18296;SDS011;18066;52.106;5.534;2022-08-03T08:49:20;12.98;;;2.55;;
18296;SDS011;18066;52.106;5.534;2022-08-03T08:51:51;21.70;;;3.90;;
18296;SDS011;18066;52.106;5.534;2022-08-03T08:54:21;14.95;;;3.47;;
18296;SDS011;18066;52.106;5.534;2022-08-03T08:56:50;15.55;;;3.45;;
18296;SDS011;18066;52.106;5.534;2022-08-03T08:59:18;13.82;;;2.60;;
18296;SDS011;18066;52.106;5.534;2022-08-03T09:01:46;13.23;;;3.15;;
18296;SDS011;18066;52.106;5.534;2022-08-03T09:04:13;18.65;;;3.03;;
18296;SDS011;18066;52.106;5.534;2022-08-03T09:06:41;10.40;;;3.10;;
18296;SDS011;18066;52.106;5.534;2022-08-03T09:09:07;12.00;;;3.63;;
18296;SDS011;18066;52.106;5.534;2022-08-03T09:11:34;8.15;;;2.55;;
18296;SDS011;18066;52.106;5.534;2022-08-03T09:14:01;13.43;;;3.35;;
18296;SDS011;18066;52.106;5.534;2022-08-03T09:16:28;7.40;;;2.72;;
18296;SDS011;18066;52.106;5.534;2022-08-03T09:18:55;17.42;;;3.25;;
18296;SDS011;18066;52.106;5.534;2022-08-03T09:21:37;16.17;;;3.35;;
18296;SDS011;18066;52.106;5.534;2022-08-03T09:24:06;10.82;;;2.95;;
18296;SDS011;18066;52.106;5.534;2022-08-03T09:26:33;13.90;;;3.58;;
18296;SDS011;18066;52.106;5.534;2022-08-03T09:29:04;13.00;;;3.00;;
18296;SDS011;18066;52.106;5.534;2022-08-03T09:31:32;15.50;;;3.75;;
18296;SDS011;18066;52.106;5.534;2022-08-03T09:34:01;16.23;;;3.65;;
18296;SDS011;18066;52.106;5.534;2022-08-03T09:36:38;13.80;;;3.05;;
18296;SDS011;18066;52.106;5.534;2022-08-03T09:39:08;15.20;;;3.10;;
18296;SDS011;18066;52.106;5.534;2022-08-03T09:41:37;22.85;;;3.30;;
18296;SDS011;18066;52.106;5.534;2022-08-03T09:44:04;11.50;;;3.33;;
18296;SDS011;18066;52.106;5.534;2022-08-03T09:46:31;14.52;;;2.30;;
18296;SDS011;18066;52.106;5.534;2022-08-03T09:49:12;9.75;;;3.67;;
18296;SDS011;18066;52.106;5.534;2022-08-03T09:51:38;15.25;;;3.13;;
18296;SDS011;18066;52.106;5.534;2022-08-03T09:54:05;12.45;;;2.83;;
18296;SDS011;18066;52.106;5.534;2022-08-03T09:56:41;15.32;;;2.83;;
18296;SDS011;18066;52.106;5.534;2022-08-03T09:59:08;15.55;;;3.20;;
18296;SDS011;18066;52.106;5.534;2022-08-03T10:01:37;9.70;;;3.03;;
18296;SDS011;18066;52.106;5.534;2022-08-03T10:04:10;13.68;;;3.28;;
18296;SDS011;18066;52.106;5.534;2022-08-03T10:06:42;11.43;;;2.78;;
18296;SDS011;18066;52.106;5.534;2022-08-03T10:09:11;12.52;;;3.28;;
18296;SDS011;18066;52.106;5.534;2022-08-03T10:11:39;13.75;;;3.60;;
18296;SDS011;18066;52.106;5.534;2022-08-03T10:14:08;10.25;;;2.55;;
18296;SDS011;18066;52.106;5.534;2022-08-03T10:16:42;11.35;;;3.00;;
18296;SDS011;18066;52.106;5.534;2022-08-03T10:19:09;13.57;;;2.70;;
18296;SDS011;18066;52.106;5.534;2022-08-03T10:21:39;21.52;;;3.30;;
18296;SDS011;18066;52.106;5.534;2022-08-03T10:24:07;16.90;;;3.13;;
18296;SDS011;18066;52.106;5.534;2022-08-03T10:26:37;8.63;;;2.63;;
18296;SDS011;18066;52.106;5.534;2022-08-03T10:29:06;8.98;;;2.53;;
18296;SDS011;18066;52.106;5.534;2022-08-03T10:31:37;9.13;;;2.67;;
18296;SDS011;18066;52.106;5.534;2022-08-03T10:34:07;20.92;;;3.33;;
18296;SDS011;18066;52.106;5.534;2022-08-03T10:36:39;12.68;;;2.75;;
18296;SDS011;18066;52.106;5.534;2022-08-03T10:39:07;16.80;;;2.53;;
18296;SDS011;18066;52.106;5.534;2022-08-03T10:41:38;13.65;;;2.33;;
18296;SDS011;18066;52.106;5.534;2022-08-03T10:44:08;13.88;;;2.75;;
18296;SDS011;18066;52.106;5.534;2022-08-03T10:46:38;11.07;;;2.38;;
18296;SDS011;18066;52.106;5.534;2022-08-03T10:49:06;12.52;;;2.67;;
18296;SDS011;18066;52.106;5.534;2022-08-03T10:51:33;10.70;;;2.65;;
18296;SDS011;18066;52.106;5.534;2022-08-03T10:54:00;10.88;;;2.40;;
18296;SDS011;18066;52.106;5.534;2022-08-03T10:56:38;10.10;;;2.63;;
18296;SDS011;18066;52.106;5.534;2022-08-03T11:05:26;12.20;;;2.53;;
18296;SDS011;18066;52.106;5.534;2022-08-03T11:10:46;7.88;;;2.45;;
18296;SDS011;18066;52.106;5.534;2022-08-03T11:13:15;14.25;;;2.67;;
18296;SDS011;18066;52.106;5.534;2022-08-03T11:15:43;9.65;;;2.28;;
18296;SDS011;18066;52.106;5.534;2022-08-03T11:18:11;10.82;;;2.60;;
18296;SDS011;18066;52.106;5.534;2022-08-03T11:20:43;13.00;;;2.20;;
18296;SDS011;18066;52.106;5.534;2022-08-03T11:23:14;12.40;;;2.00;;
18296;SDS011;18066;52.106;5.534;2022-08-03T11:26:07;11.15;;;2.30;;
18296;SDS011;18066;52.106;5.534;2022-08-03T11:28:36;9.73;;;2.17;;
18296;SDS011;18066;52.106;5.534;2022-08-03T11:34:22;12.02;;;2.03;;
18296;SDS011;18066;52.106;5.534;2022-08-03T11:39:46;5.82;;;2.00;;
18296;SDS011;18066;52.106;5.534;2022-08-03T11:45:15;7.35;;;2.10;;
18296;SDS011;18066;52.106;5.534;2022-08-03T11:47:43;6.78;;;1.65;;
18296;SDS011;18066;52.106;5.534;2022-08-03T11:50:12;8.45;;;1.90;;
18296;SDS011;18066;52.106;5.534;2022-08-03T11:52:40;11.07;;;1.92;;
18296;SDS011;18066;52.106;5.534;2022-08-03T11:55:13;9.40;;;2.33;;
18296;SDS011;18066;52.106;5.534;2022-08-03T11:57:42;12.07;;;2.58;;
18296;SDS011;18066;52.106;5.534;2022-08-03T12:00:28;9.50;;;2.35;;
18296;SDS011;18066;52.106;5.534;2022-08-03T12:02:57;10.27;;;2.08;;
18296;SDS011;18066;52.106;5.534;2022-08-03T12:05:33;6.40;;;1.70;;
18296;SDS011;18066;52.106;5.534;2022-08-03T12:08:01;4.90;;;1.92;;
18296;SDS011;18066;52.106;5.534;2022-08-03T12:10:27;15.48;;;2.22;;
18296;SDS011;18066;52.106;5.534;2022-08-03T12:12:54;8.68;;;1.80;;
18296;SDS011;18066;52.106;5.534;2022-08-03T12:15:25;6.05;;;1.95;;
18296;SDS011;18066;52.106;5.534;2022-08-03T12:17:54;6.55;;;2.05;;
18296;SDS011;18066;52.106;5.534;2022-08-03T12:20:22;8.48;;;1.90;;
18296;SDS011;18066;52.106;5.534;2022-08-03T12:22:51;9.05;;;1.70;;
18296;SDS011;18066;52.106;5.534;2022-08-03T12:25:21;7.65;;;1.63;;
18296;SDS011;18066;52.106;5.534;2022-08-03T12:27:49;7.00;;;1.63;;
18296;SDS011;18066;52.106;5.534;2022-08-03T12:30:16;7.22;;;1.67;;
18296;SDS011;18066;52.106;5.534;2022-08-03T12:32:44;6.78;;;1.75;;
18296;SDS011;18066;52.106;5.534;2022-08-03T12:35:20;7.95;;;1.60;;
18296;SDS011;18066;52.106;5.534;2022-08-03T12:37:48;9.45;;;1.88;;
18296;SDS011;18066;52.106;5.534;2022-08-03T12:40:15;8.07;;;1.70;;
18296;SDS011;18066;52.106;5.534;2022-08-03T12:42:50;8.05;;;1.98;;
18296;SDS011;18066;52.106;5.534;2022-08-03T12:45:18;5.57;;;1.92;;
18296;SDS011;18066;52.106;5.534;2022-08-03T12:47:50;9.10;;;1.67;;
18296;SDS011;18066;52.106;5.534;2022-08-03T12:50:25;9.32;;;1.38;;
18296;SDS011;18066;52.106;5.534;2022-08-03T12:52:53;7.10;;;1.45;;
18296;SDS011;18066;52.106;5.534;2022-08-03T12:55:21;6.45;;;1.50;;
18296;SDS011;18066;52.106;5.534;2022-08-03T12:57:48;5.20;;;1.58;;
18296;SDS011;18066;52.106;5.534;2022-08-03T13:00:16;6.32;;;1.80;;
18296;SDS011;18066;52.106;5.534;2022-08-03T13:02:44;4.30;;;2.35;;
18296;SDS011;18066;52.106;5.534;2022-08-03T13:05:13;3.97;;;1.45;;
18296;SDS011;18066;52.106;5.534;2022-08-03T13:07:40;5.38;;;1.60;;
18296;SDS011;18066;52.106;5.534;2022-08-03T13:10:07;7.68;;;1.50;;
18296;SDS011;18066;52.106;5.534;2022-08-03T13:12:44;3.75;;;1.52;;
18296;SDS011;18066;52.106;5.534;2022-08-03T13:15:14;6.28;;;1.58;;
18296;SDS011;18066;52.106;5.534;2022-08-03T13:17:41;6.32;;;1.88;;
18296;SDS011;18066;52.106;5.534;2022-08-03T13:20:08;8.25;;;1.60;;
18296;SDS011;18066;52.106;5.534;2022-08-03T13:22:37;5.32;;;1.85;;
18296;SDS011;18066;52.106;5.534;2022-08-03T13:25:04;3.72;;;1.60;;
18296;SDS011;18066;52.106;5.534;2022-08-03T13:27:31;5.00;;;1.50;;
18296;SDS011;18066;52.106;5.534;2022-08-03T13:29:57;3.15;;;1.70;;
18296;SDS011;18066;52.106;5.534;2022-08-03T13:32:24;5.82;;;1.63;;
18296;SDS011;18066;52.106;5.534;2022-08-03T13:34:51;5.63;;;1.73;;
18296;SDS011;18066;52.106;5.534;2022-08-03T13:37:18;2.95;;;1.48;;
18296;SDS011;18066;52.106;5.534;2022-08-03T13:39:46;3.88;;;1.65;;
18296;SDS011;18066;52.106;5.534;2022-08-03T13:42:12;6.43;;;2.20;;
18296;SDS011;18066;52.106;5.534;2022-08-03T13:44:39;4.47;;;1.58;;
18296;SDS011;18066;52.106;5.534;2022-08-03T13:47:06;8.55;;;1.73;;
18296;SDS011;18066;52.106;5.534;2022-08-03T13:49:33;3.35;;;1.83;;
18296;SDS011;18066;52.106;5.534;2022-08-03T13:51:59;3.85;;;2.17;;
18296;SDS011;18066;52.106;5.534;2022-08-03T13:54:26;5.13;;;1.67;;
18296;SDS011;18066;52.106;5.534;2022-08-03T13:56:55;4.57;;;1.65;;
18296;SDS011;18066;52.106;5.534;2022-08-03T13:59:22;5.20;;;2.30;;
18296;SDS011;18066;52.106;5.534;2022-08-03T14:01:50;5.25;;;2.20;;
18296;SDS011;18066;52.106;5.534;2022-08-03T14:04:17;7.07;;;2.00;;
18296;SDS011;18066;52.106;5.534;2022-08-03T14:06:44;4.35;;;1.75;;
18296;SDS011;18066;52.106;5.534;2022-08-03T14:09:11;2.42;;;1.98;;
18296;SDS011;18066;52.106;5.534;2022-08-03T14:11:38;6.25;;;2.22;;
18296;SDS011;18066;52.106;5.534;2022-08-03T14:14:06;5.63;;;2.55;;
18296;SDS011;18066;52.106;5.534;2022-08-03T14:16:34;4.45;;;2.17;;
18296;SDS011;18066;52.106;5.534;2022-08-03T14:19:01;4.35;;;2.10;;
18296;SDS011;18066;52.106;5.534;2022-08-03T14:21:28;6.57;;;2.10;;
18296;SDS011;18066;52.106;5.534;2022-08-03T14:23:54;5.00;;;1.90;;
18296;SDS011;18066;52.106;5.534;2022-08-03T14:26:21;3.58;;;2.05;;
18296;SDS011;18066;52.106;5.534;2022-08-03T14:28:48;9.23;;;1.90;;
18296;SDS011;18066;52.106;5.534;2022-08-03T14:31:16;6.10;;;1.73;;
18296;SDS011;18066;52.106;5.534;2022-08-03T14:33:42;7.82;;;2.05;;
18296;SDS011;18066;52.106;5.534;2022-08-03T14:36:09;3.65;;;1.60;;
18296;SDS011;18066;52.106;5.534;2022-08-03T14:38:36;4.72;;;1.55;;
18296;SDS011;18066;52.106;5.534;2022-08-03T14:41:03;4.72;;;1.98;;
18296;SDS011;18066;52.106;5.534;2022-08-03T14:43:29;5.55;;;1.83;;
18296;SDS011;18066;52.106;5.534;2022-08-03T14:45:56;3.15;;;1.90;;
18296;SDS011;18066;52.106;5.534;2022-08-03T14:48:24;4.28;;;1.73;;
18296;SDS011;18066;52.106;5.534;2022-08-03T14:50:54;3.75;;;1.73;;
18296;SDS011;18066;52.106;5.534;2022-08-03T14:53:21;4.78;;;2.10;;
18296;SDS011;18066;52.106;5.534;2022-08-03T14:55:48;4.53;;;1.80;;
18296;SDS011;18066;52.106;5.534;2022-08-03T14:58:16;7.60;;;1.77;;
18296;SDS011;18066;52.106;5.534;2022-08-03T15:00:43;5.00;;;1.45;;
18296;SDS011;18066;52.106;5.534;2022-08-03T15:03:10;4.53;;;1.95;;
18296;SDS011;18066;52.106;5.534;2022-08-03T15:05:38;4.10;;;1.88;;
18296;SDS011;18066;52.106;5.534;2022-08-03T15:08:05;3.90;;;1.67;;